Mitchell, South Dakota
Current Conditions -  °F | °C
As of 3:53 PM on Monday 22 Dec 2014 (Local Time) from KMHE Reporting Station
Overcast Overcast  
Wind Chill: 31°   Ceiling: 1200
Heat Index: 36°   Visibility: 10mi
Dew Point: 34°   Wind: 6mph
Humidity: 93%   Direction: 330°NNW
Pressure: 29.44"   Gusts: NA
Location:  43.7°N, 98.03°W
Report Text: KMHE 222153Z AUTO 33005KT 10SM OVC012 02/01 A2944 RMK AO2 SLP978 T00220011
Loading
Personal Weather Stations






























Interactive Weather Map New forecast layout! Learn more

10-Day Weather Forecast

Advertisements
Track Severe Weather on mobile